Terminal Aerodrome Forecast
Issued by NWS

Home | Current Version | Previous Version | Text Only | Print | Product List | Glossary Off
Versions: 1 2 3 4 5 6 7 8 9 10 11 12 13 14 15 16

000
FTUS43 KMPX 221733
TAFRNH
TAF
KRNH 221733Z 2218/2318 18010G18KT P6SM FEW250
     FM230200 16007KT P6SM FEW250
     FM231200 16012KT P6SM VCTS SCT025 BKN050CB
     FM231500 17012G20KT 6SM SHRA VCTS SCT025 BKN035CB=

USA.gov is the U.S. government's official web portal to all federal, state and local government web resources and services.